Wayana — PE5639 — position and weather

sailwx.info

Track history (hours):
 
Tides and Currents Weather Stations Pressure Air Temp Water Temp Dewpoint Dewpoint Depression Visibility Wind Speed Wind Dir Waves Ship Positions

Wayana

Last reported at 2017-Mar-12 12:29 UTC. Time now 2017-Mar-23 12:23 UTC.
Position N 52°55' E 005°03'.
Warning: this ship's position is 10 days out of date.

Length 14 m.

Type: Sailing vessel. MMSI: 244020670.

Date/timePositionNaut miles runAvg speedWind from/ knotsBaromVisibWave heightAir tempDewpointWater temp
2017-Mar-12 12:29N 52°55' E 005°03'3 3.3
2017-Mar-12 11:33N 52°57' E 005°07'7 7.1
2017-Mar-12 10:33N 53°02' E 005°16'5 5.1
2017-Mar-12 09:33N 53°03' E 005°24'0 0.1
2017-Mar-12 08:33N 53°03' E 005°24'0 0.0
2017-Mar-12 07:33N 53°03' E 005°24'0 0.0
2017-Mar-12 06:30N 53°03' E 005°24'0 0.0
2017-Mar-12 05:33N 53°03' E 005°24'0 0.0
2017-Mar-12 04:33N 53°03' E 005°24'0 0.0
2017-Mar-12 03:33N 53°03' E 005°24'0 0.0
2017-Mar-12 02:33N 53°03' E 005°24'0 0.0
2017-Mar-12 01:33N 53°03' E 005°24'0 0.0
2017-Mar-12 00:33N 53°03' E 005°24'0 0.0
2017-Mar-11 23:30N 53°03' E 005°24'0 0.0
2017-Mar-11 22:33N 53°03' E 005°24'0 0.0
2017-Mar-11 21:33N 53°03' E 005°24'0 0.0
2017-Mar-11 20:33N 53°03' E 005°24'0 0.0
2017-Mar-11 19:33N 53°03' E 005°24'0 0.0
2017-Mar-11 18:33N 53°03' E 005°24'0 0.0
2017-Mar-11 17:33N 53°03' E 005°24'0 0.0
2017-Mar-11 16:33N 53°03' E 005°24'0 0.0
2017-Mar-11 15:33N 53°03' E 005°24'0 0.0
2017-Mar-11 14:33N 53°03' E 005°24'0 0.0
2017-Mar-11 13:33N 53°03' E 005°24'0 0.3
2017-Mar-11 12:33N 53°03' E 005°24'4 4.0
2017-Mar-11 11:33N 53°02' E 005°17'6 5.5
2017-Mar-11 10:33N 52°59' E 005°11'6 5.7
2017-Mar-11 09:33N 52°55' E 005°04'  
2017-Mar-08 16:10N 52°55' E 005°03'0 0.0
2017-Mar-08 15:31N 52°55' E 005°03'0 0.0
2017-Mar-08 14:31N 52°55' E 005°03'  
2017-Mar-03 12:30N 52°55' E 005°03'  
Track history (hours):
 
Tides and Currents Weather Stations Pressure Air Temp Water Temp Dewpoint Dewpoint Depression Visibility Wind Speed Wind Dir Waves Ship Positions

Wayana

Last reported at 2017-Mar-12 12:29 UTC. Time now 2017-Mar-23 12:23 UTC.
Position N 52°55' E 005°03'.
Warning: this ship's position is 10 days out of date.

Length 14 m.

Type: Sailing vessel. MMSI: 244020670.

Date/timePositionNaut miles runAvg speedWind from/ knotsBaromVisibWave heightAir tempDewpointWater temp
2017-Mar-12 12:29N 52°55' E 005°03'3 3.3
2017-Mar-12 11:33N 52°57' E 005°07'7 7.1
2017-Mar-12 10:33N 53°02' E 005°16'5 5.1
2017-Mar-12 09:33N 53°03' E 005°24'0 0.1
2017-Mar-12 08:33N 53°03' E 005°24'0 0.0
2017-Mar-12 07:33N 53°03' E 005°24'0 0.0
2017-Mar-12 06:30N 53°03' E 005°24'0 0.0
2017-Mar-12 05:33N 53°03' E 005°24'0 0.0
2017-Mar-12 04:33N 53°03' E 005°24'0 0.0
2017-Mar-12 03:33N 53°03' E 005°24'0 0.0
2017-Mar-12 02:33N 53°03' E 005°24'0 0.0
2017-Mar-12 01:33N 53°03' E 005°24'0 0.0
2017-Mar-12 00:33N 53°03' E 005°24'0 0.0
2017-Mar-11 23:30N 53°03' E 005°24'0 0.0
2017-Mar-11 22:33N 53°03' E 005°24'0 0.0
2017-Mar-11 21:33N 53°03' E 005°24'0 0.0
2017-Mar-11 20:33N 53°03' E 005°24'0 0.0
2017-Mar-11 19:33N 53°03' E 005°24'0 0.0
2017-Mar-11 18:33N 53°03' E 005°24'0 0.0
2017-Mar-11 17:33N 53°03' E 005°24'0 0.0
2017-Mar-11 16:33N 53°03' E 005°24'0 0.0
2017-Mar-11 15:33N 53°03' E 005°24'0 0.0
2017-Mar-11 14:33N 53°03' E 005°24'0 0.0
2017-Mar-11 13:33N 53°03' E 005°24'0 0.3
2017-Mar-11 12:33N 53°03' E 005°24'4 4.0
2017-Mar-11 11:33N 53°02' E 005°17'6 5.5
2017-Mar-11 10:33N 52°59' E 005°11'6 5.7
2017-Mar-11 09:33N 52°55' E 005°04'  
2017-Mar-08 16:10N 52°55' E 005°03'0 0.0
2017-Mar-08 15:31N 52°55' E 005°03'0 0.0
2017-Mar-08 14:31N 52°55' E 005°03'  
2017-Mar-03 12:30N 52°55' E 005°03'  

Dump ship's entire track history